sensor_id;sensor_type;location;lat;lon;timestamp;pressure;altitude;pressure_sealevel;temperature;humidity
42297;BME280;28985;47.456;19.016;2022-10-10T00:00:47;101336.75;;;9.90;68.09
42297;BME280;28985;47.456;19.016;2022-10-10T00:03:15;101339.44;;;9.90;68.72
42297;BME280;28985;47.456;19.016;2022-10-10T00:05:42;101326.97;;;9.89;69.46
42297;BME280;28985;47.456;19.016;2022-10-10T00:08:09;101336.31;;;9.83;69.32
42297;BME280;28985;47.456;19.016;2022-10-10T00:10:36;101332.69;;;9.84;68.41
42297;BME280;28985;47.456;19.016;2022-10-10T00:13:04;101325.69;;;9.82;69.05
42297;BME280;28985;47.456;19.016;2022-10-10T00:15:31;101328.47;;;9.80;69.70
42297;BME280;28985;47.456;19.016;2022-10-10T00:17:58;101326.97;;;9.76;69.74
42297;BME280;28985;47.456;19.016;2022-10-10T00:20:24;101329.75;;;9.74;69.94
42297;BME280;28985;47.456;19.016;2022-10-10T00:22:51;101328.16;;;9.72;69.41
42297;BME280;28985;47.456;19.016;2022-10-10T00:25:18;101328.47;;;9.67;69.17
42297;BME280;28985;47.456;19.016;2022-10-10T00:27:45;101319.78;;;9.63;69.09
42297;BME280;28985;47.456;19.016;2022-10-10T00:30:12;101327.28;;;9.58;69.28
42297;BME280;28985;47.456;19.016;2022-10-10T00:32:38;101324.84;;;9.55;69.20
42297;BME280;28985;47.456;19.016;2022-10-10T00:35:05;101308.38;;;9.47;68.97
42297;BME280;28985;47.456;19.016;2022-10-10T00:37:32;101316.34;;;9.48;68.62
42297;BME280;28985;47.456;19.016;2022-10-10T00:39:58;101310.41;;;9.43;68.34
42297;BME280;28985;47.456;19.016;2022-10-10T00:42:25;101313.34;;;9.40;68.65
42297;BME280;28985;47.456;19.016;2022-10-10T00:45:18;101315.34;;;9.36;68.51
42297;BME280;28985;47.456;19.016;2022-10-10T00:47:48;101313.84;;;9.32;68.16
42297;BME280;28985;47.456;19.016;2022-10-10T00:50:18;101306.88;;;9.30;66.97
42297;BME280;28985;47.456;19.016;2022-10-10T00:52:46;101302.47;;;9.29;67.54
42297;BME280;28985;47.456;19.016;2022-10-10T00:55:14;101300.72;;;9.27;67.53
42297;BME280;28985;47.456;19.016;2022-10-10T00:57:40;101307.38;;;9.22;66.89
42297;BME280;28985;47.456;19.016;2022-10-10T01:00:08;101307.19;;;9.25;68.07
42297;BME280;28985;47.456;19.016;2022-10-10T01:02:35;101305.34;;;9.25;67.77
42297;BME280;28985;47.456;19.016;2022-10-10T01:05:02;101298.16;;;9.26;66.08
42297;BME280;28985;47.456;19.016;2022-10-10T01:07:30;101292.56;;;9.29;66.44
42297;BME280;28985;47.456;19.016;2022-10-10T01:10:05;101297.09;;;9.29;66.93
42297;BME280;28985;47.456;19.016;2022-10-10T01:12:39;101299.13;;;9.25;67.48
42297;BME280;28985;47.456;19.016;2022-10-10T01:15:27;101286.88;;;9.21;67.65
42297;BME280;28985;47.456;19.016;2022-10-10T01:18:05;101286.78;;;9.22;68.81
42297;BME280;28985;47.456;19.016;2022-10-10T01:28:44;101295.44;;;9.13;70.37
42297;BME280;28985;47.456;19.016;2022-10-10T01:31:18;101286.53;;;9.12;69.29
42297;BME280;28985;47.456;19.016;2022-10-10T01:34:06;101286.53;;;9.12;69.52
42297;BME280;28985;47.456;19.016;2022-10-10T01:36:47;101281.38;;;9.09;70.60
42297;BME280;28985;47.456;19.016;2022-10-10T01:39:30;101286.00;;;9.07;70.44
42297;BME280;28985;47.456;19.016;2022-10-10T01:42:58;101281.78;;;9.03;70.23
42297;BME280;28985;47.456;19.016;2022-10-10T01:44:58;101273.28;;;8.96;71.50
42297;BME280;28985;47.456;19.016;2022-10-10T01:47:25;101268.97;;;8.94;71.43
42297;BME280;28985;47.456;19.016;2022-10-10T01:49:55;101272.97;;;8.88;71.84
42297;BME280;28985;47.456;19.016;2022-10-10T01:58:35;101278.94;;;8.79;71.81
42297;BME280;28985;47.456;19.016;2022-10-10T02:03:47;101289.34;;;8.70;73.13
42297;BME280;28985;47.456;19.016;2022-10-10T02:06:21;101282.25;;;8.69;72.90
42297;BME280;28985;47.456;19.016;2022-10-10T02:08:55;101284.06;;;8.69;73.07
42297;BME280;28985;47.456;19.016;2022-10-10T02:11:24;101275.28;;;8.67;72.63
42297;BME280;28985;47.456;19.016;2022-10-10T02:14:01;101283.31;;;8.67;73.22
42297;BME280;28985;47.456;19.016;2022-10-10T02:16:35;101280.66;;;8.67;73.04
42297;BME280;28985;47.456;19.016;2022-10-10T02:19:06;101278.69;;;8.69;72.71
42297;BME280;28985;47.456;19.016;2022-10-10T02:21:36;101275.56;;;8.62;73.17
42297;BME280;28985;47.456;19.016;2022-10-10T02:24:05;101271.94;;;8.63;72.49
42297;BME280;28985;47.456;19.016;2022-10-10T02:26:35;101276.63;;;8.59;72.80
42297;BME280;28985;47.456;19.016;2022-10-10T02:29:13;101272.13;;;8.60;72.80
42297;BME280;28985;47.456;19.016;2022-10-10T02:31:51;101282.00;;;8.59;73.42
42297;BME280;28985;47.456;19.016;2022-10-10T02:34:29;101282.22;;;8.56;74.09
42297;BME280;28985;47.456;19.016;2022-10-10T02:37:00;101283.38;;;8.52;74.01
42297;BME280;28985;47.456;19.016;2022-10-10T02:39:30;101289.75;;;8.50;74.73
42297;BME280;28985;47.456;19.016;2022-10-10T02:41:59;101285.47;;;8.47;74.47
42297;BME280;28985;47.456;19.016;2022-10-10T02:44:26;101280.09;;;8.47;74.07
42297;BME280;28985;47.456;19.016;2022-10-10T02:46:53;101284.53;;;8.48;73.74
42297;BME280;28985;47.456;19.016;2022-10-10T02:49:25;101281.16;;;8.44;74.28
42297;BME280;28985;47.456;19.016;2022-10-10T02:51:53;101280.31;;;8.44;73.88
42297;BME280;28985;47.456;19.016;2022-10-10T02:54:19;101285.78;;;8.42;74.44
42297;BME280;28985;47.456;19.016;2022-10-10T02:56:46;101279.44;;;8.43;73.82
42297;BME280;28985;47.456;19.016;2022-10-10T02:59:12;101284.81;;;8.43;74.39
42297;BME280;28985;47.456;19.016;2022-10-10T03:01:39;101278.69;;;8.41;74.11
42297;BME280;28985;47.456;19.016;2022-10-10T03:04:06;101272.56;;;8.39;74.50
42297;BME280;28985;47.456;19.016;2022-10-10T03:06:32;101270.09;;;8.36;75.67
42297;BME280;28985;47.456;19.016;2022-10-10T03:08:59;101265.88;;;8.32;74.74
42297;BME280;28985;47.456;19.016;2022-10-10T03:11:25;101275.53;;;8.35;74.15
42297;BME280;28985;47.456;19.016;2022-10-10T03:13:52;101272.09;;;8.32;74.55
42297;BME280;28985;47.456;19.016;2022-10-10T03:16:18;101273.47;;;8.25;74.95
42297;BME280;28985;47.456;19.016;2022-10-10T03:18:45;101271.34;;;8.30;74.62
42297;BME280;28985;47.456;19.016;2022-10-10T03:21:11;101272.50;;;8.26;74.47
42297;BME280;28985;47.456;19.016;2022-10-10T03:23:38;101274.31;;;8.26;74.71
42297;BME280;28985;47.456;19.016;2022-10-10T03:26:05;101267.47;;;8.22;74.48
42297;BME280;28985;47.456;19.016;2022-10-10T03:28:31;101267.25;;;8.25;74.87
42297;BME280;28985;47.456;19.016;2022-10-10T03:30:58;101266.38;;;8.24;75.11
42297;BME280;28985;47.456;19.016;2022-10-10T03:33:25;101265.63;;;8.22;75.09
42297;BME280;28985;47.456;19.016;2022-10-10T03:35:51;101269.03;;;8.24;76.07
42297;BME280;28985;47.456;19.016;2022-10-10T03:38:18;101276.34;;;8.22;75.74
42297;BME280;28985;47.456;19.016;2022-10-10T03:40:44;101268.50;;;8.19;76.09
42297;BME280;28985;47.456;19.016;2022-10-10T03:43:12;101264.09;;;8.18;75.63
42297;BME280;28985;47.456;19.016;2022-10-10T03:45:43;101275.69;;;8.18;75.57
42297;BME280;28985;47.456;19.016;2022-10-10T03:48:11;101270.13;;;8.22;75.58
42297;BME280;28985;47.456;19.016;2022-10-10T03:50:37;101268.59;;;8.17;75.82
42297;BME280;28985;47.456;19.016;2022-10-10T03:53:04;101261.63;;;8.15;76.74
42297;BME280;28985;47.456;19.016;2022-10-10T03:55:31;101266.03;;;8.16;76.70
42297;BME280;28985;47.456;19.016;2022-10-10T03:57:57;101267.16;;;8.12;76.77
42297;BME280;28985;47.456;19.016;2022-10-10T04:00:24;101263.72;;;8.10;76.94
42297;BME280;28985;47.456;19.016;2022-10-10T04:02:51;101258.47;;;8.08;77.15
42297;BME280;28985;47.456;19.016;2022-10-10T04:05:19;101253.00;;;8.10;77.11
42297;BME280;28985;47.456;19.016;2022-10-10T04:07:45;101264.47;;;8.12;76.66
42297;BME280;28985;47.456;19.016;2022-10-10T04:10:12;101260.19;;;8.09;77.32
42297;BME280;28985;47.456;19.016;2022-10-10T04:12:38;101266.22;;;8.13;76.67
42297;BME280;28985;47.456;19.016;2022-10-10T04:15:05;101262.69;;;8.12;76.54
42297;BME280;28985;47.456;19.016;2022-10-10T04:17:32;101257.31;;;8.12;75.96
42297;BME280;28985;47.456;19.016;2022-10-10T04:19:58;101263.66;;;8.11;76.55
42297;BME280;28985;47.456;19.016;2022-10-10T04:22:25;101259.34;;;8.09;76.98
42297;BME280;28985;47.456;19.016;2022-10-10T04:24:51;101255.03;;;8.06;76.92
42297;BME280;28985;47.456;19.016;2022-10-10T04:27:18;101258.78;;;8.03;77.57
42297;BME280;28985;47.456;19.016;2022-10-10T04:29:44;101256.28;;;8.00;77.61
42297;BME280;28985;47.456;19.016;2022-10-10T04:32:11;101257.06;;;8.02;77.23
42297;BME280;28985;47.456;19.016;2022-10-10T04:34:37;101266.91;;;8.02;77.95
42297;BME280;28985;47.456;19.016;2022-10-10T04:37:04;101257.16;;;8.01;77.28
42297;BME280;28985;47.456;19.016;2022-10-10T04:39:30;101252.75;;;8.00;78.18
42297;BME280;28985;47.456;19.016;2022-10-10T04:41:57;101265.09;;;8.02;78.21
42297;BME280;28985;47.456;19.016;2022-10-10T04:44:25;101269.59;;;8.02;78.06
42297;BME280;28985;47.456;19.016;2022-10-10T04:46:51;101266.06;;;8.01;77.91
42297;BME280;28985;47.456;19.016;2022-10-10T04:49:18;101267.13;;;7.99;77.57
42297;BME280;28985;47.456;19.016;2022-10-10T04:51:44;101260.88;;;7.98;78.10
42297;BME280;28985;47.456;19.016;2022-10-10T04:54:11;101265.28;;;7.99;78.06
42297;BME280;28985;47.456;19.016;2022-10-10T04:56:38;101271.50;;;8.00;77.28
42297;BME280;28985;47.456;19.016;2022-10-10T04:59:08;101269.88;;;7.97;78.17
42297;BME280;28985;47.456;19.016;2022-10-10T05:01:35;101267.50;;;7.92;78.75
42297;BME280;28985;47.456;19.016;2022-10-10T05:04:02;101285.50;;;7.90;78.77
42297;BME280;28985;47.456;19.016;2022-10-10T05:06:29;101270.06;;;7.94;79.38
42297;BME280;28985;47.456;19.016;2022-10-10T05:08:55;101269.13;;;7.95;78.16
42297;BME280;28985;47.456;19.016;2022-10-10T05:11:22;101267.13;;;7.99;78.35
42297;BME280;28985;47.456;19.016;2022-10-10T05:13:48;101264.44;;;7.99;78.22
42297;BME280;28985;47.456;19.016;2022-10-10T05:16:16;101269.41;;;8.05;79.07
42297;BME280;28985;47.456;19.016;2022-10-10T05:18:42;101270.25;;;8.05;78.94
42297;BME280;28985;47.456;19.016;2022-10-10T05:21:09;101263.72;;;8.10;79.04
42297;BME280;28985;47.456;19.016;2022-10-10T05:23:37;101266.09;;;8.14;79.14
42297;BME280;28985;47.456;19.016;2022-10-10T05:26:04;101259.91;;;8.14;78.83
42297;BME280;28985;47.456;19.016;2022-10-10T05:28:30;101269.34;;;8.19;78.35
42297;BME280;28985;47.456;19.016;2022-10-10T05:31:01;101274.31;;;8.26;79.05
42297;BME280;28985;47.456;19.016;2022-10-10T05:33:28;101269.72;;;8.28;78.67
42297;BME280;28985;47.456;19.016;2022-10-10T05:36:08;101272.19;;;8.31;77.91
42297;BME280;28985;47.456;19.016;2022-10-10T05:38:36;101275.25;;;8.39;78.87
42297;BME280;28985;47.456;19.016;2022-10-10T05:41:04;101279.34;;;8.45;78.05
42297;BME280;28985;47.456;19.016;2022-10-10T05:43:31;101272.81;;;8.49;78.52
42297;BME280;28985;47.456;19.016;2022-10-10T05:45:57;101291.22;;;8.55;77.59
42297;BME280;28985;47.456;19.016;2022-10-10T05:48:24;101279.31;;;8.59;77.38
42297;BME280;28985;47.456;19.016;2022-10-10T05:50:53;101280.84;;;8.64;78.56
42297;BME280;28985;47.456;19.016;2022-10-10T05:53:22;101276.91;;;8.69;78.20
42297;BME280;28985;47.456;19.016;2022-10-10T05:55:49;101284.63;;;8.74;77.11
42297;BME280;28985;47.456;19.016;2022-10-10T05:58:15;101284.03;;;8.83;75.90
42297;BME280;28985;47.456;19.016;2022-10-10T06:00:44;101284.44;;;8.90;76.52
42297;BME280;28985;47.456;19.016;2022-10-10T06:03:11;101282.13;;;8.98;75.10
42297;BME280;28985;47.456;19.016;2022-10-10T06:05:44;101289.53;;;9.08;75.08
42297;BME280;28985;47.456;19.016;2022-10-10T06:08:11;101289.09;;;9.14;75.40
42297;BME280;28985;47.456;19.016;2022-10-10T06:10:43;101290.53;;;9.20;74.21
42297;BME280;28985;47.456;19.016;2022-10-10T06:13:12;101286.53;;;9.25;74.54
42297;BME280;28985;47.456;19.016;2022-10-10T06:15:39;101281.38;;;9.35;73.26
42297;BME280;28985;47.456;19.016;2022-10-10T06:18:06;101280.84;;;9.43;72.90
42297;BME280;28985;47.456;19.016;2022-10-10T06:20:37;101282.03;;;9.52;74.04
42297;BME280;28985;47.456;19.016;2022-10-10T06:23:05;101279.78;;;9.59;72.52
42297;BME280;28985;47.456;19.016;2022-10-10T06:25:33;101273.88;;;9.66;72.64
42297;BME280;28985;47.456;19.016;2022-10-10T06:28:06;101273.19;;;9.76;72.57
42297;BME280;28985;47.456;19.016;2022-10-10T06:30:33;101274.16;;;9.88;72.57
42297;BME280;28985;47.456;19.016;2022-10-10T06:33:00;101271.31;;;10.02;72.06
42297;BME280;28985;47.456;19.016;2022-10-10T06:35:27;101285.56;;;10.16;71.75
42297;BME280;28985;47.456;19.016;2022-10-10T06:37:53;101276.09;;;10.23;71.66
42297;BME280;28985;47.456;19.016;2022-10-10T06:40:20;101275.63;;;10.29;71.04
42297;BME280;28985;47.456;19.016;2022-10-10T06:42:46;101278.63;;;10.38;69.62
42297;BME280;28985;47.456;19.016;2022-10-10T06:45:13;101271.38;;;10.51;69.71
42297;BME280;28985;47.456;19.016;2022-10-10T06:47:40;101268.09;;;10.59;68.67
42297;BME280;28985;47.456;19.016;2022-10-10T06:50:07;101279.03;;;10.69;68.12
42297;BME280;28985;47.456;19.016;2022-10-10T06:52:34;101278.34;;;10.78;68.87
42297;BME280;28985;47.456;19.016;2022-10-10T06:55:00;101279.13;;;10.92;68.13
42297;BME280;28985;47.456;19.016;2022-10-10T06:57:27;101283.69;;;11.03;66.55
42297;BME280;28985;47.456;19.016;2022-10-10T06:59:54;101283.09;;;11.10;66.77
42297;BME280;28985;47.456;19.016;2022-10-10T07:02:20;101274.66;;;11.15;65.83
42297;BME280;28985;47.456;19.016;2022-10-10T07:04:48;101278.69;;;11.21;64.06
42297;BME280;28985;47.456;19.016;2022-10-10T07:07:15;101280.91;;;11.27;64.18
42297;BME280;28985;47.456;19.016;2022-10-10T07:09:42;101271.13;;;11.37;64.56
42297;BME280;28985;47.456;19.016;2022-10-10T07:12:08;101271.28;;;11.47;64.30
42297;BME280;28985;47.456;19.016;2022-10-10T07:14:37;101268.84;;;11.55;63.49
42297;BME280;28985;47.456;19.016;2022-10-10T07:17:04;101269.06;;;11.64;63.83
42297;BME280;28985;47.456;19.016;2022-10-10T07:19:30;101280.84;;;11.74;63.81
42297;BME280;28985;47.456;19.016;2022-10-10T07:21:57;101280.69;;;11.87;62.89
42297;BME280;28985;47.456;19.016;2022-10-10T07:24:23;101273.09;;;11.92;62.28
42297;BME280;28985;47.456;19.016;2022-10-10T07:26:50;101271.19;;;12.06;63.17
42297;BME280;28985;47.456;19.016;2022-10-10T07:29:30;101272.38;;;12.13;61.63
42297;BME280;28985;47.456;19.016;2022-10-10T07:31:56;101268.06;;;12.22;61.12
42297;BME280;28985;47.456;19.016;2022-10-10T07:34:23;101272.69;;;12.31;61.25
42297;BME280;28985;47.456;19.016;2022-10-10T07:36:50;101275.88;;;12.37;61.10
42297;BME280;28985;47.456;19.016;2022-10-10T07:39:20;101273.53;;;12.43;60.72
42297;BME280;28985;47.456;19.016;2022-10-10T07:41:48;101274.72;;;12.51;60.35
42297;BME280;28985;47.456;19.016;2022-10-10T07:44:15;101274.69;;;12.62;61.39
42297;BME280;28985;47.456;19.016;2022-10-10T07:46:42;101262.25;;;12.71;60.49
42297;BME280;28985;47.456;19.016;2022-10-10T07:49:09;101263.19;;;12.81;60.02
42297;BME280;28985;47.456;19.016;2022-10-10T07:51:36;101267.78;;;12.91;58.93
42297;BME280;28985;47.456;19.016;2022-10-10T07:54:03;101269.00;;;12.98;57.68
42297;BME280;28985;47.456;19.016;2022-10-10T07:56:30;101268.66;;;13.12;58.56
42297;BME280;28985;47.456;19.016;2022-10-10T07:58:57;101265.31;;;13.20;58.85
42297;BME280;28985;47.456;19.016;2022-10-10T08:01:24;101269.63;;;13.33;59.02
42297;BME280;28985;47.456;19.016;2022-10-10T08:03:50;101262.44;;;13.43;58.73
42297;BME280;28985;47.456;19.016;2022-10-10T08:06:17;101266.34;;;13.50;57.10
42297;BME280;28985;47.456;19.016;2022-10-10T08:08:47;101265.13;;;13.64;58.38
42297;BME280;28985;47.456;19.016;2022-10-10T08:11:18;101265.03;;;13.76;56.43
42297;BME280;28985;47.456;19.016;2022-10-10T08:13:45;101267.66;;;13.87;57.51
42297;BME280;28985;47.456;19.016;2022-10-10T08:16:12;101260.13;;;14.01;57.27
42297;BME280;28985;47.456;19.016;2022-10-10T08:18:38;101253.59;;;14.13;56.46
42297;BME280;28985;47.456;19.016;2022-10-10T08:21:07;101248.94;;;14.25;55.20
42297;BME280;28985;47.456;19.016;2022-10-10T08:23:34;101246.50;;;14.42;55.28
42297;BME280;28985;47.456;19.016;2022-10-10T08:26:04;101237.97;;;14.56;53.69
42297;BME280;28985;47.456;19.016;2022-10-10T08:28:32;101251.38;;;14.68;53.86
42297;BME280;28985;47.456;19.016;2022-10-10T08:31:06;101246.41;;;14.83;52.25
42297;BME280;28985;47.456;19.016;2022-10-10T08:33:34;101249.81;;;14.95;53.06
42297;BME280;28985;47.456;19.016;2022-10-10T08:36:05;101246.78;;;15.08;52.23
42297;BME280;28985;47.456;19.016;2022-10-10T08:38:34;101240.19;;;15.20;51.47
42297;BME280;28985;47.456;19.016;2022-10-10T08:41:12;101236.31;;;15.33;50.45
42297;BME280;28985;47.456;19.016;2022-10-10T08:43:48;101241.72;;;15.42;52.48
42297;BME280;28985;47.456;19.016;2022-10-10T08:48:49;101239.19;;;15.69;49.75
42297;BME280;28985;47.456;19.016;2022-10-10T08:51:27;101226.81;;;15.84;49.52
42297;BME280;28985;47.456;19.016;2022-10-10T08:53:56;101220.72;;;16.01;49.04
42297;BME280;28985;47.456;19.016;2022-10-10T08:56:31;101219.22;;;16.16;49.55
42297;BME280;28985;47.456;19.016;2022-10-10T08:59:11;101219.00;;;16.28;47.73
42297;BME280;28985;47.456;19.016;2022-10-10T09:01:39;101217.44;;;16.43;47.74
42297;BME280;28985;47.456;19.016;2022-10-10T09:04:26;101210.75;;;16.56;48.38
42297;BME280;28985;47.456;19.016;2022-10-10T09:15:59;101211.53;;;17.11;46.47
42297;BME280;28985;47.456;19.016;2022-10-10T09:23:40;101210.28;;;17.66;44.69
42297;BME280;28985;47.456;19.016;2022-10-10T09:26:12;101207.13;;;17.79;44.96
42297;BME280;28985;47.456;19.016;2022-10-10T09:28:52;101197.72;;;17.74;43.51
42297;BME280;28985;47.456;19.016;2022-10-10T09:31:27;101196.75;;;17.91;43.94
42297;BME280;28985;47.456;19.016;2022-10-10T09:34:01;101201.28;;;18.17;43.78
42297;BME280;28985;47.456;19.016;2022-10-10T09:36:32;101204.72;;;18.36;44.22
42297;BME280;28985;47.456;19.016;2022-10-10T09:39:11;101194.84;;;18.60;42.74
42297;BME280;28985;47.456;19.016;2022-10-10T09:44:19;101196.84;;;18.99;41.64
42297;BME280;28985;47.456;19.016;2022-10-10T09:46:46;101198.72;;;19.15;38.81
42297;BME280;28985;47.456;19.016;2022-10-10T09:49:14;101188.09;;;19.29;41.63
42297;BME280;28985;47.456;19.016;2022-10-10T09:51:43;101195.38;;;19.45;41.51
42297;BME280;28985;47.456;19.016;2022-10-10T09:54:11;101193.56;;;19.77;41.96
42297;BME280;28985;47.456;19.016;2022-10-10T09:56:43;101196.50;;;20.07;40.41
42297;BME280;28985;47.456;19.016;2022-10-10T09:59:39;101187.56;;;20.37;38.26
42297;BME280;28985;47.456;19.016;2022-10-10T10:02:26;101187.44;;;20.53;37.37
42297;BME280;28985;47.456;19.016;2022-10-10T10:04:53;101182.38;;;20.65;38.38
42297;BME280;28985;47.456;19.016;2022-10-10T10:07:27;101179.63;;;20.89;38.74
42297;BME280;28985;47.456;19.016;2022-10-10T10:09:59;101184.34;;;21.10;34.79
42297;BME280;28985;47.456;19.016;2022-10-10T10:12:28;101173.69;;;21.45;35.08
42297;BME280;28985;47.456;19.016;2022-10-10T10:15:03;101180.56;;;21.71;37.60
42297;BME280;28985;47.456;19.016;2022-10-10T10:17:30;101177.28;;;21.98;35.72
42297;BME280;28985;47.456;19.016;2022-10-10T10:19:57;101173.03;;;22.54;33.57
42297;BME280;28985;47.456;19.016;2022-10-10T10:22:36;101175.97;;;23.10;32.48
42297;BME280;28985;47.456;19.016;2022-10-10T10:25:29;101169.25;;;23.54;32.84
42297;BME280;28985;47.456;19.016;2022-10-10T10:30:37;101168.22;;;24.24;29.70
42297;BME280;28985;47.456;19.016;2022-10-10T10:33:19;101156.38;;;24.85;31.27
42297;BME280;28985;47.456;19.016;2022-10-10T10:39:01;101152.75;;;26.03;28.12
42297;BME280;28985;47.456;19.016;2022-10-10T10:41:35;101143.94;;;26.26;29.21
42297;BME280;28985;47.456;19.016;2022-10-10T10:46:56;101133.50;;;26.79;27.96
42297;BME280;28985;47.456;19.016;2022-10-10T10:49:35;101134.00;;;27.51;26.48
42297;BME280;28985;47.456;19.016;2022-10-10T10:52:42;101131.94;;;27.95;25.59
42297;BME280;28985;47.456;19.016;2022-10-10T11:00:57;101124.13;;;29.47;22.37
42297;BME280;28985;47.456;19.016;2022-10-10T11:03:58;101121.50;;;29.99;21.99
42297;BME280;28985;47.456;19.016;2022-10-10T11:12:43;101107.50;;;31.19;21.90
42297;BME280;28985;47.456;19.016;2022-10-10T11:15:22;101114.31;;;31.28;19.59
42297;BME280;28985;47.456;19.016;2022-10-10T11:18:12;101116.09;;;31.62;19.82
42297;BME280;28985;47.456;19.016;2022-10-10T11:20:49;101113.84;;;31.86;19.63
42297;BME280;28985;47.456;19.016;2022-10-10T11:23:39;101105.44;;;32.14;20.15
42297;BME280;28985;47.456;19.016;2022-10-10T11:26:26;101105.25;;;32.21;19.81
42297;BME280;28985;47.456;19.016;2022-10-10T11:29:05;101101.44;;;32.32;18.95
42297;BME280;28985;47.456;19.016;2022-10-10T11:31:50;101094.97;;;32.26;19.32
42297;BME280;28985;47.456;19.016;2022-10-10T11:34:22;101082.69;;;32.22;19.05
42297;BME280;28985;47.456;19.016;2022-10-10T11:36:53;101082.78;;;32.38;18.97
42297;BME280;28985;47.456;19.016;2022-10-10T11:39:54;101079.91;;;32.60;18.53
42297;BME280;28985;47.456;19.016;2022-10-10T11:42:24;101074.72;;;32.79;18.88
42297;BME280;28985;47.456;19.016;2022-10-10T11:44:57;101071.16;;;32.89;19.03
42297;BME280;28985;47.456;19.016;2022-10-10T11:47:49;101063.59;;;32.85;17.77
42297;BME280;28985;47.456;19.016;2022-10-10T11:50:27;101069.97;;;32.80;17.47
42297;BME280;28985;47.456;19.016;2022-10-10T11:53:21;101066.88;;;32.71;17.26
42297;BME280;28985;47.456;19.016;2022-10-10T11:55:54;101070.50;;;31.96;17.83
42297;BME280;28985;47.456;19.016;2022-10-10T11:58:31;101063.47;;;31.88;17.84
42297;BME280;28985;47.456;19.016;2022-10-10T12:01:04;101068.16;;;31.82;18.53
42297;BME280;28985;47.456;19.016;2022-10-10T12:03:31;101065.66;;;32.13;17.75
42297;BME280;28985;47.456;19.016;2022-10-10T12:06:02;101056.03;;;31.99;18.95
42297;BME280;28985;47.456;19.016;2022-10-10T12:08:43;101053.19;;;31.88;18.62
42297;BME280;28985;47.456;19.016;2022-10-10T12:11:19;101049.56;;;31.33;18.26
42297;BME280;28985;47.456;19.016;2022-10-10T12:14:14;101038.41;;;30.66;18.70
42297;BME280;28985;47.456;19.016;2022-10-10T12:16:42;101040.75;;;30.35;19.61
42297;BME280;28985;47.456;19.016;2022-10-10T12:19:20;101044.34;;;30.35;21.39
42297;BME280;28985;47.456;19.016;2022-10-10T12:22:01;101036.22;;;30.90;20.24
42297;BME280;28985;47.456;19.016;2022-10-10T12:24:35;101034.53;;;31.61;17.87
42297;BME280;28985;47.456;19.016;2022-10-10T12:27:18;101025.63;;;32.25;18.99
42297;BME280;28985;47.456;19.016;2022-10-10T12:32:25;101030.28;;;31.54;17.69
42297;BME280;28985;47.456;19.016;2022-10-10T12:42:28;101020.44;;;32.44;17.19
42297;BME280;28985;47.456;19.016;2022-10-10T12:44:56;101019.09;;;33.05;18.94
42297;BME280;28985;47.456;19.016;2022-10-10T12:50:39;101025.28;;;32.16;18.66
42297;BME280;28985;47.456;19.016;2022-10-10T12:55:42;101021.84;;;30.71;18.94
42297;BME280;28985;47.456;19.016;2022-10-10T12:58:21;101025.44;;;30.15;20.71
42297;BME280;28985;47.456;19.016;2022-10-10T13:00:55;101022.66;;;29.98;20.36
42297;BME280;28985;47.456;19.016;2022-10-10T13:05:50;101019.72;;;29.41;20.62
42297;BME280;28985;47.456;19.016;2022-10-10T13:08:19;101014.09;;;29.24;19.62
42297;BME280;28985;47.456;19.016;2022-10-10T13:11:02;101010.41;;;29.18;22.74
42297;BME280;28985;47.456;19.016;2022-10-10T13:13:30;100994.00;;;28.88;22.66
42297;BME280;28985;47.456;19.016;2022-10-10T13:16:03;101003.31;;;28.58;23.70
42297;BME280;28985;47.456;19.016;2022-10-10T13:18:41;100999.53;;;27.68;20.96
42297;BME280;28985;47.456;19.016;2022-10-10T13:21:14;101003.88;;;27.33;22.48
42297;BME280;28985;47.456;19.016;2022-10-10T13:23:46;101008.44;;;27.09;23.29
42297;BME280;28985;47.456;19.016;2022-10-10T13:26:36;100999.38;;;26.27;26.14
42297;BME280;28985;47.456;19.016;2022-10-10T13:31:41;101002.78;;;25.39;26.73
42297;BME280;28985;47.456;19.016;2022-10-10T13:34:08;101003.50;;;25.21;26.76
42297;BME280;28985;47.456;19.016;2022-10-10T13:36:39;100995.78;;;24.98;25.60
42297;BME280;28985;47.456;19.016;2022-10-10T13:39:13;100993.31;;;24.83;26.71
42297;BME280;28985;47.456;19.016;2022-10-10T13:41:43;100997.13;;;24.68;25.80
42297;BME280;28985;47.456;19.016;2022-10-10T13:44:16;100989.56;;;24.50;26.92
42297;BME280;28985;47.456;19.016;2022-10-10T13:46:46;100996.13;;;24.35;27.28
42297;BME280;28985;47.456;19.016;2022-10-10T13:49:24;100982.41;;;24.15;28.21
42297;BME280;28985;47.456;19.016;2022-10-10T13:52:19;100979.00;;;24.06;27.61
42297;BME280;28985;47.456;19.016;2022-10-10T13:54:46;100977.78;;;23.82;27.07
42297;BME280;28985;47.456;19.016;2022-10-10T13:57:22;100974.34;;;23.59;28.05
42297;BME280;28985;47.456;19.016;2022-10-10T13:59:58;100977.31;;;23.51;28.88
42297;BME280;28985;47.456;19.016;2022-10-10T14:02:30;100982.59;;;23.46;28.82
42297;BME280;28985;47.456;19.016;2022-10-10T14:04:58;100980.16;;;23.16;28.40
42297;BME280;28985;47.456;19.016;2022-10-10T14:07:29;100990.69;;;22.99;28.86
42297;BME280;28985;47.456;19.016;2022-10-10T14:09:59;100984.72;;;22.88;29.93
42297;BME280;28985;47.456;19.016;2022-10-10T14:12:31;100982.56;;;22.84;30.83
42297;BME280;28985;47.456;19.016;2022-10-10T14:15:00;100970.41;;;22.58;30.47
42297;BME280;28985;47.456;19.016;2022-10-10T14:17:27;100964.16;;;22.42;31.58
42297;BME280;28985;47.456;19.016;2022-10-10T14:19:54;100970.22;;;22.31;33.17
42297;BME280;28985;47.456;19.016;2022-10-10T14:22:22;100952.81;;;22.10;30.30